Portada
METAR-TAF:

METAR-TAF

Aeroports :

Koumac, Nova Caledònia

latitud: 20-34S, longitud: 164-17E, altitud: 23 m

METAR: manca

Hora: 16:01 (05:01 UTC)

Pronòstic

L'informe es va fer fa 6 hores i 1 minuts, a les 23:00 UTC
Pronòstic vàlid del 25 a les 00 UTC al 25 a les 24 UTC
Vent 10 kt del Sud
Visibilitat 10 km o més
Escasses núvols a una alçada de 4500 ft
Probabilitat 40% :
Temporalment
l' 25 a les 02 UTC al 25 a les 10 UTC
Escasses núvols a una alçada de 2500 ft, Cumulus congestus.
xàfecs de pluja
Evolucionant progressivament
l' 25 a les 09 UTC al 25 a les 11 UTC
Vent 5 kt del Nord-Est

TAF: NWWK 242300Z 2500/2524 17010KT 9999 FEW045 PROB40 TEMPO 2502/2510 SHRA FEW025TCU BECMG 2509/2511 04005KT

Observacions i pronòstics meteorològics de més de 4000 aeroports (METAR i TAF).

Les estacions disponibles són els punts grocs i vermells al mapa.

Posi el ratolí al punt desitjat per veure el nom de l'estació.

Feu clic per veure les observacions i els pronòstics meteorològics.

Per canviar el mapa: feu clic els botons verds amb una creu de color negre per apropar; al botó verd amb un guió per allunyar la imatge; o en les fletxes verdes per a mapes adjacents.


METAR-TAF: